Time,TemperatureF,DewpointF,PressureIn,WindDirection,WindDirectionDegrees,WindSpeedMPH,WindSpeedGustMPH,Humidity,HourlyPrecipIn,Conditions,Clouds,dailyrainin,SolarRadiationWatts/m^2,SoftwareType,DateUTC
2013-10-24 00:04:00,60.6,54.0,30.05,WSW,248,0.0,1.0,79,0.00,,,0.00,0,weatherlink.com 1.10,2013-10-23 22:04:00,
2013-10-24 00:19:00,60.1,54.0,30.04,WSW,248,0.0,1.0,80,0.00,,,0.00,0,weatherlink.com 1.10,2013-10-23 22:19:00,
2013-10-24 00:34:00,59.7,54.0,30.05,WSW,248,0.0,1.0,81,0.00,,,0.00,0,weatherlink.com 1.10,2013-10-23 22:34:00,
2013-10-24 00:49:00,59.6,54.0,30.05,WSW,247,0.0,2.0,83,0.00,,,0.00,0,weatherlink.com 1.10,2013-10-23 22:49:00,
2013-10-24 01:04:00,59.3,54.0,30.05,WSW,247,0.0,1.0,83,0.00,,,0.00,0,weatherlink.com 1.10,2013-10-23 23:04:00,
2013-10-24 01:19:00,58.9,54.0,30.05,WSW,249,0.0,2.0,83,0.00,,,0.00,0,weatherlink.com 1.10,2013-10-23 23:19:00,
2013-10-24 01:34:00,58.9,54.0,30.05,WSW,247,0.0,1.0,84,0.00,,,0.00,0,weatherlink.com 1.10,2013-10-23 23:34:00,
2013-10-24 01:49:00,59.1,54.0,30.06,WSW,247,0.0,2.0,84,0.00,,,0.00,0,weatherlink.com 1.10,2013-10-23 23:49:00,
2013-10-24 02:04:00,59.6,55.0,30.06,WSW,245,2.0,5.0,85,0.00,,,0.00,0,weatherlink.com 1.10,2013-10-24 00:04:00,
2013-10-24 02:19:00,59.9,55.0,30.07,WSW,247,1.0,3.0,84,0.00,,,0.00,0,weatherlink.com 1.10,2013-10-24 00:19:00,
2013-10-24 02:34:00,59.9,55.0,30.06,North,360,2.0,4.0,83,0.00,,,0.00,0,weatherlink.com 1.10,2013-10-24 00:34:00,
2013-10-24 02:49:00,59.9,55.0,30.06,North,360,2.0,5.0,83,0.00,,,0.00,0,weatherlink.com 1.10,2013-10-24 00:49:00,
2013-10-24 03:04:00,59.5,54.0,30.06,WSW,242,0.0,1.0,83,0.00,,,0.00,0,weatherlink.com 1.10,2013-10-24 01:04:00,
2013-10-24 03:19:00,59.0,54.0,30.06,WSW,242,1.0,3.0,83,0.00,,,0.00,0,weatherlink.com 1.10,2013-10-24 01:19:00,
2013-10-24 03:34:00,58.7,54.0,30.07,WSW,243,1.0,2.0,84,0.00,,,0.00,0,weatherlink.com 1.10,2013-10-24 01:34:00,
2013-10-24 03:49:00,58.5,54.0,30.07,North,360,0.0,2.0,85,0.00,,,0.00,0,weatherlink.com 1.10,2013-10-24 01:49:00,
2013-10-24 04:04:00,58.1,53.0,30.07,WSW,239,0.0,0.0,84,0.00,,,0.00,0,weatherlink.com 1.10,2013-10-24 02:04:00,
2013-10-24 04:19:00,57.3,53.0,30.07,WSW,242,0.0,0.0,84,0.00,,,0.00,0,weatherlink.com 1.10,2013-10-24 02:19:00,
2013-10-24 04:34:00,56.8,52.0,30.07,WSW,242,0.0,1.0,85,0.00,,,0.00,0,weatherlink.com 1.10,2013-10-24 02:34:00,
2013-10-24 04:49:00,56.8,53.0,30.07,WSW,242,1.0,4.0,87,0.00,,,0.00,0,weatherlink.com 1.10,2013-10-24 02:49:00,
2013-10-24 05:04:00,57.0,53.0,30.07,North,360,0.0,3.0,87,0.00,,,0.00,0,weatherlink.com 1.10,2013-10-24 03:04:00,
2013-10-24 05:19:00,56.4,53.0,30.07,North,360,0.0,1.0,87,0.00,,,0.00,0,weatherlink.com 1.10,2013-10-24 03:19:00,
2013-10-24 05:34:00,56.3,53.0,30.07,SW,235,0.0,3.0,87,0.00,,,0.00,0,weatherlink.com 1.10,2013-10-24 03:34:00,
2013-10-24 05:49:00,56.4,53.0,30.07,North,360,0.0,3.0,88,0.00,,,0.00,0,weatherlink.com 1.10,2013-10-24 03:49:00,
2013-10-24 06:04:00,56.1,53.0,30.08,SW,235,0.0,0.0,88,0.00,,,0.00,0,weatherlink.com 1.10,2013-10-24 04:04:00,
2013-10-24 06:19:00,55.7,52.0,30.08,SW,236,0.0,2.0,88,0.00,,,0.00,0,weatherlink.com 1.10,2013-10-24 04:19:00,
2013-10-24 06:34:00,55.2,52.0,30.09,SW,236,0.0,0.0,88,0.00,,,0.00,0,weatherlink.com 1.10,2013-10-24 04:34:00,
2013-10-24 06:49:00,54.9,52.0,30.09,SW,234,0.0,1.0,88,0.00,,,0.00,0,weatherlink.com 1.10,2013-10-24 04:49:00,
2013-10-24 07:04:00,54.4,51.0,30.09,North,360,0.0,1.0,88,0.00,,,0.00,0,weatherlink.com 1.10,2013-10-24 05:04:00,
2013-10-24 07:19:00,54.4,51.0,30.09,SW,236,0.0,1.0,89,0.00,,,0.00,5,weatherlink.com 1.10,2013-10-24 05:19:00,
2013-10-24 07:34:00,54.4,51.0,30.10,SW,234,0.0,0.0,89,0.00,,,0.00,19,weatherlink.com 1.10,2013-10-24 05:34:00,
2013-10-24 07:49:00,54.6,52.0,30.10,North,360,0.0,0.0,90,0.00,,,0.00,33,weatherlink.com 1.10,2013-10-24 05:49:00,
2013-10-24 08:04:00,56.1,54.0,30.11,SW,235,0.0,0.0,91,0.00,,,0.00,69,weatherlink.com 1.10,2013-10-24 06:04:00,
2013-10-24 08:19:00,59.2,55.0,30.11,North,360,0.0,1.0,86,0.00,,,0.00,104,weatherlink.com 1.10,2013-10-24 06:19:00,
2013-10-24 08:34:00,60.7,55.0,30.11,SW,234,0.0,1.0,82,0.00,,,0.00,135,weatherlink.com 1.10,2013-10-24 06:34:00,
2013-10-24 08:50:00,61.9,55.0,30.12,SW,236,0.0,2.0,79,0.00,,,0.00,160,weatherlink.com 1.10,2013-10-24 06:50:00,
2013-10-24 09:35:00,63.7,56.0,30.13,West,267,0.0,4.0,76,0.00,,,0.00,318,weatherlink.com 1.10,2013-10-24 07:35:00,
2013-10-24 09:50:00,64.5,56.0,30.13,West,265,0.0,1.0,74,0.00,,,0.00,207,weatherlink.com 1.10,2013-10-24 07:50:00,
2013-10-24 10:20:00,68.4,57.0,30.14,NNW,340,0.0,2.0,66,0.00,,,0.00,352,weatherlink.com 1.10,2013-10-24 08:20:00,
2013-10-24 10:35:00,71.3,58.0,30.14,North,355,0.0,3.0,63,0.00,,,0.00,390,weatherlink.com 1.10,2013-10-24 08:35:00,
2013-10-24 10:51:00,73.6,58.0,30.14,North,355,1.0,4.0,59,0.00,,,0.00,429,weatherlink.com 1.10,2013-10-24 08:51:00,
2013-10-24 11:06:00,76.3,59.0,30.14,North,355,1.0,5.0,56,0.00,,,0.00,464,weatherlink.com 1.10,2013-10-24 09:06:00,
2013-10-24 11:21:00,75.7,58.0,30.14,North,5,0.0,5.0,55,0.00,,,0.00,436,weatherlink.com 1.10,2013-10-24 09:21:00,
2013-10-24 11:36:00,75.6,57.0,30.14,SSW,205,1.0,4.0,53,0.00,,,0.00,554,weatherlink.com 1.10,2013-10-24 09:36:00,
2013-10-24 11:51:00,75.2,57.0,30.14,South,189,1.0,4.0,53,0.00,,,0.00,584,weatherlink.com 1.10,2013-10-24 09:51:00,
2013-10-24 12:06:00,73.9,58.0,30.14,SW,223,0.0,2.0,57,0.00,,,0.00,313,weatherlink.com 1.10,2013-10-24 10:06:00,
2013-10-24 12:21:00,73.9,58.0,30.13,North,5,3.0,5.0,58,0.00,,,0.00,221,weatherlink.com 1.10,2013-10-24 10:21:00,
2013-10-24 12:36:00,75.4,59.0,30.14,North,355,5.0,6.0,57,0.00,,,0.00,376,weatherlink.com 1.10,2013-10-24 10:36:00,
2013-10-24 12:51:00,75.8,58.0,30.13,North,360,2.0,5.0,54,0.00,,,0.00,279,weatherlink.com 1.10,2013-10-24 10:51:00,
2013-10-24 13:06:00,76.4,58.0,30.13,NNE,28,0.0,3.0,53,0.00,,,0.00,271,weatherlink.com 1.10,2013-10-24 11:06:00,
2013-10-24 13:21:00,76.1,58.0,30.13,NE,43,1.0,3.0,54,0.00,,,0.00,339,weatherlink.com 1.10,2013-10-24 11:21:00,
2013-10-24 13:36:00,77.1,58.0,30.13,SW,223,0.0,2.0,51,0.00,,,0.00,478,weatherlink.com 1.10,2013-10-24 11:36:00,
2013-10-24 13:51:00,80.3,60.0,30.13,North,9,2.0,6.0,50,0.00,,,0.00,418,weatherlink.com 1.10,2013-10-24 11:51:00,
2013-10-24 14:06:00,78.5,60.0,30.13,North,360,0.0,5.0,53,0.00,,,0.00,374,weatherlink.com 1.10,2013-10-24 12:06:00,
2013-10-24 14:21:00,77.6,59.0,30.13,West,270,0.0,4.0,53,0.00,,,0.00,431,weatherlink.com 1.10,2013-10-24 12:21:00,
2013-10-24 14:36:00,77.4,59.0,30.13,North,351,5.0,7.0,53,0.00,,,0.00,360,weatherlink.com 1.10,2013-10-24 12:36:00,
2013-10-24 14:51:00,75.9,57.0,30.13,North,360,1.0,3.0,53,0.00,,,0.00,121,weatherlink.com 1.10,2013-10-24 12:51:00,
2013-10-24 17:52:00,68.2,57.0,30.13,WNW,292,0.0,1.0,68,0.00,,,0.00,0,weatherlink.com 1.10,2013-10-24 15:52:00,
2013-10-24 18:07:00,68.3,57.0,30.14,WNW,292,0.0,0.0,67,0.00,,,0.00,0,weatherlink.com 1.10,2013-10-24 16:07:00,
2013-10-24 18:21:00,68.2,57.0,30.14,WNW,292,0.0,1.0,68,0.00,,,0.00,0,weatherlink.com 1.10,2013-10-24 16:21:00,
2013-10-24 18:36:00,67.5,57.0,30.14,North,360,0.0,1.0,69,0.00,,,0.00,0,weatherlink.com 1.10,2013-10-24 16:36:00,
2013-10-24 18:51:00,66.6,57.0,30.14,WNW,292,0.0,0.0,72,0.00,,,0.00,0,weatherlink.com 1.10,2013-10-24 16:51:00,
2013-10-24 19:06:00,65.7,57.0,30.14,North,360,0.0,1.0,74,0.00,,,0.00,0,weatherlink.com 1.10,2013-10-24 17:06:00,
2013-10-24 19:21:00,65.2,57.0,30.14,North,360,0.0,1.0,75,0.00,,,0.00,0,weatherlink.com 1.10,2013-10-24 17:21:00,
2013-10-24 19:36:00,65.0,57.0,30.14,WNW,299,0.0,0.0,76,0.00,,,0.00,0,weatherlink.com 1.10,2013-10-24 17:36:00,
2013-10-24 19:51:00,64.9,58.0,30.14,WNW,298,0.0,0.0,77,0.00,,,0.00,0,weatherlink.com 1.10,2013-10-24 17:51:00,
2013-10-24 20:06:00,64.6,57.0,30.14,WNW,296,0.0,0.0,77,0.00,,,0.00,0,weatherlink.com 1.10,2013-10-24 18:06:00,
2013-10-24 20:21:00,64.2,57.0,30.14,North,360,0.0,0.0,77,0.00,,,0.00,0,weatherlink.com 1.10,2013-10-24 18:21:00,
2013-10-24 20:51:00,63.6,57.0,30.15,North,360,0.0,0.0,79,0.00,,,0.00,0,weatherlink.com 1.10,2013-10-24 18:51:00,
2013-10-24 21:21:00,63.1,57.0,30.15,WNW,300,0.0,0.0,80,0.00,,,0.00,0,weatherlink.com 1.10,2013-10-24 19:21:00,
2013-10-24 21:51:00,62.6,57.0,30.15,WNW,296,0.0,0.0,81,0.00,,,0.00,0,weatherlink.com 1.10,2013-10-24 19:51:00,
2013-10-24 22:06:00,62.4,57.0,30.15,North,360,0.0,0.0,81,0.00,,,0.00,0,weatherlink.com 1.10,2013-10-24 20:06:00,
2013-10-24 22:21:00,62.2,56.0,30.16,WNW,297,0.0,0.0,81,0.00,,,0.00,0,weatherlink.com 1.10,2013-10-24 20:21:00,
2013-10-24 22:36:00,61.9,56.0,30.16,WNW,288,0.0,1.0,82,0.00,,,0.00,0,weatherlink.com 1.10,2013-10-24 20:36:00,
2013-10-24 22:51:00,61.5,56.0,30.16,WNW,296,0.0,0.0,82,0.00,,,0.00,0,weatherlink.com 1.10,2013-10-24 20:51:00,
2013-10-24 23:06:00,61.1,56.0,30.16,WNW,297,0.0,0.0,82,0.00,,,0.00,0,weatherlink.com 1.10,2013-10-24 21:06:00,
2013-10-24 23:21:00,60.8,56.0,30.16,WNW,297,0.0,1.0,83,0.00,,,0.00,0,weatherlink.com 1.10,2013-10-24 21:21:00,
2013-10-24 23:37:00,60.7,56.0,30.16,WNW,298,0.0,0.0,84,0.00,,,0.00,0,weatherlink.com 1.10,2013-10-24 21:37:00,
2013-10-24 23:52:00,60.6,56.0,30.16,WNW,297,0.0,0.0,84,0.00,,,0.00,0,weatherlink.com 1.10,2013-10-24 21:52:00,